sensor_id;sensor_type;location;lat;lon;timestamp;pressure;altitude;pressure_sealevel;temperature;humidity
6427;BME280;3246;42.664;23.308;2023-07-13T17:30:05;120715.88;;;-142.62;33.26
6427;BME280;3246;42.664;23.308;2023-07-13T17:32:33;120715.88;;;-142.62;33.22
6427;BME280;3246;42.664;23.308;2023-07-13T17:35:20;120715.88;;;-142.62;33.61
6427;BME280;3246;42.664;23.308;2023-07-13T17:37:48;120715.88;;;-142.62;33.67
6427;BME280;3246;42.664;23.308;2023-07-13T17:40:15;120715.88;;;-142.62;34.05
6427;BME280;3246;42.664;23.308;2023-07-13T17:42:44;120715.88;;;-142.62;33.99
6427;BME280;3246;42.664;23.308;2023-07-13T17:45:12;120715.88;;;-142.62;34.24
6427;BME280;3246;42.664;23.308;2023-07-13T17:47:45;120715.88;;;-142.62;34.71
6427;BME280;3246;42.664;23.308;2023-07-13T17:50:16;120715.88;;;-142.62;34.38
6427;BME280;3246;42.664;23.308;2023-07-13T17:52:48;120715.88;;;-142.62;34.93
6427;BME280;3246;42.664;23.308;2023-07-13T17:55:15;120715.88;;;-142.62;35.09
6427;BME280;3246;42.664;23.308;2023-07-13T17:57:44;120715.88;;;-142.62;36.08
6427;BME280;3246;42.664;23.308;2023-07-13T18:00:18;120715.88;;;-142.62;36.48
6427;BME280;3246;42.664;23.308;2023-07-13T18:02:59;120715.88;;;-142.62;36.75
6427;BME280;3246;42.664;23.308;2023-07-13T18:05:29;120715.88;;;-142.62;36.26
6427;BME280;3246;42.664;23.308;2023-07-13T18:07:56;120715.88;;;-142.62;36.84
6427;BME280;3246;42.664;23.308;2023-07-13T18:10:23;120715.88;;;-142.62;36.63
6427;BME280;3246;42.664;23.308;2023-07-13T18:12:50;120715.88;;;-142.62;37.14
6427;BME280;3246;42.664;23.308;2023-07-13T18:15:21;120715.88;;;-142.62;36.85
6427;BME280;3246;42.664;23.308;2023-07-13T18:17:50;120715.88;;;-142.62;36.97
6427;BME280;3246;42.664;23.308;2023-07-13T18:20:18;120715.88;;;-142.62;37.37
6427;BME280;3246;42.664;23.308;2023-07-13T18:22:47;120715.88;;;-142.62;37.09
6427;BME280;3246;42.664;23.308;2023-07-13T18:25:16;120715.88;;;-142.62;36.92
6427;BME280;3246;42.664;23.308;2023-07-13T18:27:43;120715.88;;;-142.62;37.40
6427;BME280;3246;42.664;23.308;2023-07-13T18:30:12;120715.88;;;-142.62;37.75
6427;BME280;3246;42.664;23.308;2023-07-13T18:32:43;120715.88;;;-142.62;37.79
6427;BME280;3246;42.664;23.308;2023-07-13T18:35:14;120715.88;;;-142.62;37.78
6427;BME280;3246;42.664;23.308;2023-07-13T18:37:42;120715.88;;;-142.62;37.68
6427;BME280;3246;42.664;23.308;2023-07-13T18:40:14;120715.88;;;-142.62;37.77
6427;BME280;3246;42.664;23.308;2023-07-13T18:42:42;120715.88;;;-142.62;38.24
6427;BME280;3246;42.664;23.308;2023-07-13T18:45:11;120715.88;;;-142.62;38.62
6427;BME280;3246;42.664;23.308;2023-07-13T18:47:41;120715.88;;;-142.62;38.25
6427;BME280;3246;42.664;23.308;2023-07-13T18:50:14;120715.88;;;-142.62;38.60
6427;BME280;3246;42.664;23.308;2023-07-13T18:52:41;120715.88;;;-142.62;38.91
6427;BME280;3246;42.664;23.308;2023-07-13T18:55:15;120715.88;;;-142.62;39.00
6427;BME280;3246;42.664;23.308;2023-07-13T18:57:42;120715.88;;;-142.62;39.29
6427;BME280;3246;42.664;23.308;2023-07-13T19:00:12;120715.88;;;-142.62;38.73
6427;BME280;3246;42.664;23.308;2023-07-13T19:02:41;120715.88;;;-142.62;38.91
6427;BME280;3246;42.664;23.308;2023-07-13T19:05:16;120715.88;;;-142.62;38.93
6427;BME280;3246;42.664;23.308;2023-07-13T19:07:43;120715.88;;;-142.62;37.57
6427;BME280;3246;42.664;23.308;2023-07-13T19:10:17;120715.88;;;-142.62;37.66
6427;BME280;3246;42.664;23.308;2023-07-13T19:12:46;120715.88;;;-142.62;36.69
6427;BME280;3246;42.664;23.308;2023-07-13T19:15:19;120715.88;;;-142.62;36.75
6427;BME280;3246;42.664;23.308;2023-07-13T19:17:49;120715.88;;;-142.62;36.40
6427;BME280;3246;42.664;23.308;2023-07-13T19:20:17;120715.88;;;-142.62;35.87
6427;BME280;3246;42.664;23.308;2023-07-13T19:22:49;120715.88;;;-142.62;36.51
6427;BME280;3246;42.664;23.308;2023-07-13T19:25:18;120715.88;;;-142.62;35.72
6427;BME280;3246;42.664;23.308;2023-07-13T19:27:46;120715.88;;;-142.62;38.86
6427;BME280;3246;42.664;23.308;2023-07-13T19:30:14;120715.88;;;-142.62;39.77
6427;BME280;3246;42.664;23.308;2023-07-13T19:32:41;120715.88;;;-142.62;39.64
6427;BME280;3246;42.664;23.308;2023-07-13T19:35:10;120715.88;;;-142.62;39.18
6427;BME280;3246;42.664;23.308;2023-07-13T19:37:37;120715.88;;;-142.62;39.36
6427;BME280;3246;42.664;23.308;2023-07-13T19:40:10;120715.88;;;-142.62;40.02
6427;BME280;3246;42.664;23.308;2023-07-13T19:42:40;120715.88;;;-142.62;39.83
6427;BME280;3246;42.664;23.308;2023-07-13T19:45:14;120715.88;;;-142.62;40.67
6427;BME280;3246;42.664;23.308;2023-07-13T19:47:42;120715.88;;;-142.62;41.21
6427;BME280;3246;42.664;23.308;2023-07-13T19:50:12;120715.88;;;-142.62;41.31
6427;BME280;3246;42.664;23.308;2023-07-13T19:52:44;120715.88;;;-142.62;41.45
6427;BME280;3246;42.664;23.308;2023-07-13T19:55:13;120715.88;;;-142.62;41.48
6427;BME280;3246;42.664;23.308;2023-07-13T19:57:41;120715.88;;;-142.62;39.24
6427;BME280;3246;42.664;23.308;2023-07-13T20:00:15;120715.88;;;-142.62;38.76
6427;BME280;3246;42.664;23.308;2023-07-13T20:02:43;120715.88;;;-142.62;38.91
6427;BME280;3246;42.664;23.308;2023-07-13T20:05:11;120715.88;;;-142.62;38.60
6427;BME280;3246;42.664;23.308;2023-07-13T20:07:38;120715.88;;;-142.62;38.56
6427;BME280;3246;42.664;23.308;2023-07-13T20:10:16;120715.88;;;-142.62;38.72
6427;BME280;3246;42.664;23.308;2023-07-13T20:12:43;120715.88;;;-142.62;38.77
6427;BME280;3246;42.664;23.308;2023-07-13T20:15:13;120715.88;;;-142.62;38.75
6427;BME280;3246;42.664;23.308;2023-07-13T20:17:40;120715.88;;;-142.62;38.85
6427;BME280;3246;42.664;23.308;2023-07-13T20:20:24;120715.88;;;-142.62;38.88
6427;BME280;3246;42.664;23.308;2023-07-13T20:22:53;120715.88;;;-142.62;39.63
6427;BME280;3246;42.664;23.308;2023-07-13T20:25:23;120715.88;;;-142.62;40.19
6427;BME280;3246;42.664;23.308;2023-07-13T20:27:50;120715.88;;;-142.62;40.84
6427;BME280;3246;42.664;23.308;2023-07-13T20:30:18;120715.88;;;-142.62;41.49
6427;BME280;3246;42.664;23.308;2023-07-13T20:32:46;120715.88;;;-142.62;42.04
6427;BME280;3246;42.664;23.308;2023-07-13T20:35:30;120715.88;;;-142.62;42.06
6427;BME280;3246;42.664;23.308;2023-07-13T20:37:58;120715.88;;;-142.62;42.25
6427;BME280;3246;42.664;23.308;2023-07-13T20:40:27;120715.88;;;-142.62;42.29
6427;BME280;3246;42.664;23.308;2023-07-13T20:42:54;120715.88;;;-142.62;42.23
6427;BME280;3246;42.664;23.308;2023-07-13T20:45:23;120715.88;;;-142.62;42.54
6427;BME280;3246;42.664;23.308;2023-07-13T20:47:52;120715.88;;;-142.62;42.95
6427;BME280;3246;42.664;23.308;2023-07-13T20:50:23;120715.88;;;-142.62;43.07
6427;BME280;3246;42.664;23.308;2023-07-13T20:52:54;120715.88;;;-142.62;43.78
6427;BME280;3246;42.664;23.308;2023-07-13T20:55:23;120715.88;;;-142.62;43.66
6427;BME280;3246;42.664;23.308;2023-07-13T20:57:51;120715.88;;;-142.62;43.81
6427;BME280;3246;42.664;23.308;2023-07-13T21:00:20;120715.88;;;-142.62;43.93
6427;BME280;3246;42.664;23.308;2023-07-13T21:02:49;120715.88;;;-142.62;44.06
6427;BME280;3246;42.664;23.308;2023-07-13T21:05:19;120715.88;;;-142.62;43.93
6427;BME280;3246;42.664;23.308;2023-07-13T21:07:47;120715.88;;;-142.62;44.56
6427;BME280;3246;42.664;23.308;2023-07-13T21:10:18;120715.88;;;-142.62;44.52
6427;BME280;3246;42.664;23.308;2023-07-13T21:12:45;120715.88;;;-142.62;44.71
6427;BME280;3246;42.664;23.308;2023-07-13T21:15:13;120715.88;;;-142.62;44.99
6427;BME280;3246;42.664;23.308;2023-07-13T21:17:40;120715.88;;;-142.62;45.35
6427;BME280;3246;42.664;23.308;2023-07-13T21:20:19;120715.88;;;-142.62;45.98
6427;BME280;3246;42.664;23.308;2023-07-13T21:22:46;120715.88;;;-142.62;46.31
6427;BME280;3246;42.664;23.308;2023-07-13T21:25:17;120715.88;;;-142.62;46.64
6427;BME280;3246;42.664;23.308;2023-07-13T21:27:44;120715.88;;;-142.62;47.02
6427;BME280;3246;42.664;23.308;2023-07-13T21:30:15;120715.88;;;-142.62;47.03
6427;BME280;3246;42.664;23.308;2023-07-13T21:32:43;120715.88;;;-142.62;47.10
6427;BME280;3246;42.664;23.308;2023-07-13T21:35:20;120715.88;;;-142.62;47.58
6427;BME280;3246;42.664;23.308;2023-07-13T21:37:47;120715.88;;;-142.62;47.68
6427;BME280;3246;42.664;23.308;2023-07-13T21:40:17;120715.88;;;-142.62;47.86
6427;BME280;3246;42.664;23.308;2023-07-13T21:42:45;120715.88;;;-142.62;48.81
6427;BME280;3246;42.664;23.308;2023-07-13T21:45:19;120715.88;;;-142.62;48.79
6427;BME280;3246;42.664;23.308;2023-07-13T21:47:47;120715.88;;;-142.62;48.70
6427;BME280;3246;42.664;23.308;2023-07-13T21:50:14;120715.88;;;-142.62;48.82
6427;BME280;3246;42.664;23.308;2023-07-13T21:52:41;120715.88;;;-142.62;49.44
6427;BME280;3246;42.664;23.308;2023-07-13T21:55:13;120715.88;;;-142.62;49.57
6427;BME280;3246;42.664;23.308;2023-07-13T21:57:42;120715.88;;;-142.62;49.72
6427;BME280;3246;42.664;23.308;2023-07-13T22:00:18;120715.88;;;-142.62;49.55
6427;BME280;3246;42.664;23.308;2023-07-13T22:02:46;120715.88;;;-142.62;49.70
6427;BME280;3246;42.664;23.308;2023-07-13T22:05:14;120715.88;;;-142.62;49.89
6427;BME280;3246;42.664;23.308;2023-07-13T22:07:41;120715.88;;;-142.62;49.87
6427;BME280;3246;42.664;23.308;2023-07-13T22:10:13;120715.88;;;-142.62;50.08
6427;BME280;3246;42.664;23.308;2023-07-13T22:12:41;120715.88;;;-142.62;50.02
6427;BME280;3246;42.664;23.308;2023-07-13T22:15:09;120715.88;;;-142.62;50.29
6427;BME280;3246;42.664;23.308;2023-07-13T22:17:36;120715.88;;;-142.62;50.53
6427;BME280;3246;42.664;23.308;2023-07-13T22:20:04;120715.88;;;-142.62;50.19
6427;BME280;3246;42.664;23.308;2023-07-13T22:22:34;120715.88;;;-142.62;50.59
6427;BME280;3246;42.664;23.308;2023-07-13T22:25:07;120715.88;;;-142.62;50.77
6427;BME280;3246;42.664;23.308;2023-07-13T22:27:50;120715.88;;;-142.62;50.70
6427;BME280;3246;42.664;23.308;2023-07-13T22:30:21;120715.88;;;-142.62;51.01
6427;BME280;3246;42.664;23.308;2023-07-13T22:32:52;120715.88;;;-142.62;51.46
6427;BME280;3246;42.664;23.308;2023-07-13T22:35:25;120715.88;;;-142.62;51.57
6427;BME280;3246;42.664;23.308;2023-07-13T22:37:55;120715.88;;;-142.62;52.29
6427;BME280;3246;42.664;23.308;2023-07-13T22:40:25;120715.88;;;-142.62;52.42
6427;BME280;3246;42.664;23.308;2023-07-13T22:42:55;120715.88;;;-142.62;52.27
6427;BME280;3246;42.664;23.308;2023-07-13T22:45:24;120715.88;;;-142.62;51.72
6427;BME280;3246;42.664;23.308;2023-07-13T22:47:53;120715.88;;;-142.62;52.08
6427;BME280;3246;42.664;23.308;2023-07-13T22:50:21;120715.88;;;-142.62;51.60
6427;BME280;3246;42.664;23.308;2023-07-13T22:52:48;120715.88;;;-142.62;51.87
6427;BME280;3246;42.664;23.308;2023-07-13T22:55:16;120715.88;;;-142.62;51.97
6427;BME280;3246;42.664;23.308;2023-07-13T22:57:49;120715.88;;;-142.62;51.89
6427;BME280;3246;42.664;23.308;2023-07-13T23:00:21;120715.88;;;-142.62;52.44
6427;BME280;3246;42.664;23.308;2023-07-13T23:02:51;120715.88;;;-142.62;52.53
6427;BME280;3246;42.664;23.308;2023-07-13T23:05:20;120715.88;;;-142.62;52.37
6427;BME280;3246;42.664;23.308;2023-07-13T23:07:48;120715.88;;;-142.62;52.45
6427;BME280;3246;42.664;23.308;2023-07-13T23:10:17;120715.88;;;-142.62;52.74
6427;BME280;3246;42.664;23.308;2023-07-13T23:12:48;120715.88;;;-142.62;52.57
6427;BME280;3246;42.664;23.308;2023-07-13T23:15:18;120715.88;;;-142.62;52.55
6427;BME280;3246;42.664;23.308;2023-07-13T23:17:51;120715.88;;;-142.62;52.62
6427;BME280;3246;42.664;23.308;2023-07-13T23:20:23;120715.88;;;-142.62;52.76
6427;BME280;3246;42.664;23.308;2023-07-13T23:22:52;120715.88;;;-142.62;52.32
6427;BME280;3246;42.664;23.308;2023-07-13T23:25:22;120715.88;;;-142.62;53.04
6427;BME280;3246;42.664;23.308;2023-07-13T23:27:50;120715.88;;;-142.62;53.15
6427;BME280;3246;42.664;23.308;2023-07-13T23:30:19;120715.88;;;-142.62;53.96
6427;BME280;3246;42.664;23.308;2023-07-13T23:32:47;120715.88;;;-142.62;53.32
6427;BME280;3246;42.664;23.308;2023-07-13T23:35:18;120715.88;;;-142.62;54.05
6427;BME280;3246;42.664;23.308;2023-07-13T23:37:45;120715.88;;;-142.62;54.27
6427;BME280;3246;42.664;23.308;2023-07-13T23:40:15;120715.88;;;-142.62;54.15
6427;BME280;3246;42.664;23.308;2023-07-13T23:42:42;120715.88;;;-142.62;54.23
6427;BME280;3246;42.664;23.308;2023-07-13T23:45:13;120715.88;;;-142.62;55.18
6427;BME280;3246;42.664;23.308;2023-07-13T23:47:41;120715.88;;;-142.62;55.07
6427;BME280;3246;42.664;23.308;2023-07-13T23:50:12;120715.88;;;-142.62;55.00
6427;BME280;3246;42.664;23.308;2023-07-13T23:52:40;120715.88;;;-142.62;54.78
6427;BME280;3246;42.664;23.308;2023-07-13T23:55:12;120715.88;;;-142.62;55.42
6427;BME280;3246;42.664;23.308;2023-07-13T23:57:41;120715.88;;;-142.62;55.36
